Timeline UpdatesTrip UpdatesNews PostsPvt PostsTravel TipsAdmin PostsConv PostsFollowed PostsChat RequestsBlog PostsPNR Posts

Disclaimer
Search
 
 
Sat Jul 26, 2014 12:37:43 ISTHomeTrainsΣChainsAtlasPNRForumGalleryNewsFAQTripsMembersLoginFeedback
No Recent News for this Train
Other Trains in the News **new
Latest...
.
Sat Feb 22, 2014 (10:30PM)
⇐ Return Journey: Train# 58112

58111/Tatanagar-Itwari Passenger

Feb 22 2014 (10:30PM)
Change Departure Station:
Change Arrival Station:
Post a Train Travel TipPost a Train Travel Tip **new
Post a Comment/Question/Picture/VideoPost a Comment/Question/Picture/Video
Pantry/Catering
✕ NO Pantry Car
✕ NO Catering
RSA - Rake Sharing
RSA with 58110 Gua Tatanagar Passenger. Ref: Subhash Dhavala(Entry# 217294)
Rake/Coach Composition
Loco-GS1-GS6-SLR1-SLR4-GS7-GS9 = Total 13 coaches.; Ref: Subhash Dhavala(Entry# 217294).
Loco
WAM-4 or WAG-7
News    PNR    Forum    Time-Table    Availability    Fare Chart    Map    Arr/Dep History    Trips    Gallery    ΣChains    X/O    Timeline    
Travel Time: 20h 11m    81 halts    Distance: 719 km    Avg Speed: 35 km/hr
Type: Passenger
Zone: SER/South Eastern
Departs @ 06:30
Platform# 2
SMTWTFS
Tatanagar Junction/TATA 
Arrives @ 02:41 +1 night
Platform# ???
SMTWTFS
Salekasa/SKS 

81 halts. 95 intermediate Stations between Tatanagar Junction and Salekasa

Show ALL intermediate Stations  Show Old Time-Table

#CodeStation NameX/OArrivesAvgDepartsAvgHaltPFDay#KmSpeedElevZoneAddress
1TATA»Tatanagar Junction (5)»  -06:30-210.025164mSER91-657-2423026, Jharkhand
2ADTPAdityapur (3)X  06:41-06:42-1m--14.740152mSERJamshedpur, Jharkhand
3GMHGamharia (3)X  06:51-06:52-1m1110.760165mSERJamshedpur, Jharkhand
4BRBSBirbans  07:01-07:02-1m--119.762171mSERBirbans, Jharkhand
5SINISini Junction (3)  07:09-07:10-1m1127.051182mSERNational Highway 33, Jharkhand
6MMVMahali Marup (2)  07:19-07:20-1m--134.750183mSERMahali Marup Station, Jharkhand
7RKSNRajkharsawan Junction (3)X  07:29-07:30-1m--142.256189mSERSaraikela Kharswan District, Jharkhand
8BRMBarabamboX  07:40-07:41-1m--151.646213mSERBarabambo Station, Jharkhand
9CKPChakradharpur (3)X  07:55-08:15-20m--162.371235mSERChakradharpur (West Singhbhum), Jharkhand
10LPHLotapahar  08:23-08:24-1m--171.869251mSERLotapahar Station, Jharkhand
11SWRSonua  08:34-08:35-1m--183.260287mSERSonua, Jharkhand
12TUXTunia  08:41-08:42-1m--189.251297mSERTunia Station, Jharkhand
13GOLGoilkera (2)  08:50-08:51-1m--196.036333mSERGoilkera, Jharkhand
14DRWNDerowan P. Halt  09:07-09:08-1m--1105.751275mSERDerowan, Jharkhand
15PSTPosotia (4)  09:16-09:17-1m--1112.551279mSERPosotia Station, Jharkhand
16MOUManoharpur  09:30-09:31-1m--1123.543228mSERManoharpur, Jharkhand
17JRAJaraikela  09:47-09:48-1m--1134.956215mSERJaraikela Station, Jharkhand
18BULBhalulata  09:56-09:57-1m--1142.458239mSERRourkela, Jharkhand
19BZRBisra  10:04-10:05-1m--1149.251224mSERSundargarh, Odisha
20BNDMBondamunda (2)X  10:14-10:15-1m--1156.816213mSERRourkela, Odisha
21ROURourkela Junction (5)X  10:40-11:15-35m--1163.345198mSERRourkela, Odisha
22PPOPanposh (2)  11:23-11:24-1m--1169.345190mSERRourkela, Odisha
23KLGKalunga  11:34-11:35-1m--1176.861203mSERSundargarh, Odisha
24KXNKanshbahalX  11:42-11:43-1m--1183.955220mSERSundargarh, Odisha
25GPRaj Gangpur (3)  11:53-11:54-1m--1193.140237mSERRaj Ganpur, Odisha
26SXNSonakhan  12:05-12:06-1m--1200.455249mSERSundargarh, Odisha
27SOGRSogra  12:13-12:14-1m--1206.947293mSERState Highway 10, Odisha
28GPHGarpos (3)X  12:20-12:21-1m--1211.652278mSERSundargarh, Odisha
29TGMTangarmundaXO  12:30-12:31-1m--1219.351264mSERSundargarh, Odisha
30BMBBamra (3)X  12:41-12:42-1m--1227.736259mSERBamra PH : 06642-229268, Odisha
31DIHDharuadihi  12:58-12:59-1m--1237.363258mSERSH 24, Odisha
32BEHBagdihi (3)  13:05-13:06-1m--1243.649254mSERState Highway 24 PH: 06640-286227, Odisha
33PNPLPanpali  13:14-13:15-1m--1250.236258mSERJharsuguda, Odisha
34DTVDhutraX  13:24-13:25-1m--1255.67240mSERJharsuguda, Odisha
35JSGJharsuguda Junction (5)XO  14:40-15:30-50m--1264.290236mSERJharsuguda, Odisha
36IBIb  15:36-15:37-1m--1273.253207mSECRJharsuguda, Odisha
37BRJNBrajrajnagar  15:40-15:42-2m--1275.976212mSECRBrajrajnagar, Odisha
38BPHBelpahar  15:49-15:51-2m--1284.867235mSECRBelpahar, Odisha
39HGRHimgir  16:03-16:04-1m--1298.364275mSECRNational Highway 200, Chhattisgarh
40DAODaghora  16:11-16:12-1m--1305.772269mSECRRaigarh, Chhattisgarh
41JMGJamga  16:22-16:23-1m--1317.773233mSECRJamga Station, Chhattisgarh
42KRLKotarlia  16:30-16:31-1m--1326.265229mSECRRaigarh, Chhattisgarh
43RIGRaigarh (3)X  16:40-16:45-5m--1335.962220mSECRRaigarh, Chhattisgarh
44KDTRKirodimalnagar (5)  16:52-16:53-1m--1343.179240mSECRRaigarh, Chhattisgarh
45BEFBhupdeopur  17:00-17:01-1m--1352.377243mSECRRaigarh, Chhattisgarh
46ROBRobertsonX  17:08-17:09-1m--1361.464239mSECRRaigarh, Chhattisgarh
47KHSKharsia  17:17-17:19-2m--1369.952259mSECRNational Highway 200, Chhattisgarh
48JDIJharradihX  17:25-17:26-1m--1375.187247mSECRRaigarh, Chhattisgarh
49SKTSakti (4)X  17:33-17:35-2m--1385.247237mSECRJanjgir-Champa, Chhattisgarh
50JDDAJethaX  17:45-17:46-1m--1393.085244mSECRNational Highway 200, Chhattisgarh
51BUABaradwarX  17:51-17:53-2m--1400.156256mSECRJanjgir-Champa, Chhattisgarh
52SGRDSaragaon Road  18:00-18:01-1m--1406.738254mSECRNational Highway 200, Chhattisgarh
53CPHChampa Junction (3)X  18:15-18:20-5m--1415.681264mSECRNational Highway 200 (07819-245767), Chhattisgarh
54NIANaila  18:28-18:30-2m--1426.581273mSECRJanjgir, Chhattisgarh
55AKTAkaltara (4)  18:41-18:43-2m--1441.479284mSECRDist. Janjgir Champa, Chhattisgarh
56JRMGJairamnagar  18:53-18:55-2m--1454.529272mSECRNational Highway 200, Chhattisgarh
57GTWGatora  19:11-19:13-2m--1462.212268mSECRBilaspur, Chhattisgarh
58BSPBilaspur Junction (8)X  19:45-20:15-30m--1468.745271mSECRBilaspur, Chhattisgarh
59CHBTChakarbhathaX  20:28-20:30-2m--1478.458285mSECRBilaspur, Chhattisgarh
60BYLBelha  20:36-20:38-2m--1484.273269mSECRCollege Road, Chhattisgarh
61NPINipaniaX  20:51-20:53-2m--1500.188259mSECRNational Highway 200, Chhattisgarh
62BYTBhatapara (4)X  21:03-21:05-2m--1514.884270mSECRBanjari Road, Chhattisgarh
63HNHathbandhX  21:16-21:18-2m--1530.280283mSECRRaipur, Chhattisgarh
64TLDTilda (3)  21:26-21:28-2m--1540.973291mSECRBanjari Rd, Chhattisgarh
65BKTHBaikunthX  21:33-21:35-2m--1547.039287mSECRBanjari Rd, Chhattisgarh
66SLHSiliariX  21:48-21:50-2m--1555.457280mSECRBanjari Rd, Chhattisgarh
67MDHMandhar  22:00-22:02-2m--1564.945281mSECRDonde Kalan, Chhattisgarh
68WRCWRS Colony PH  22:18-22:20-2m--1577.04286mSECRRaipur, Chhattisgarh
69RRaipur Junction (6)XO  23:00-23:25-25m--1579.668297mSECRRaipur, Chhattisgarh
70KMIKumhari (2)  23:36-23:38-2m--1592.038287mSECRKumhari, Chhattisgarh
71DBECDevbaloda CharodaX  23:50-23:52-2m--1599.542310mSECRBhilai, Chhattisgarh
72BIABhilai (2)  23:57-23:59-2m--1603.056309mSECRBhilai, Chhattisgarh
73BPHBBhilai Power House (3)  00:04-00:06-2m--2607.622312mSECRBhilai, Chhattisgarh
74BQRBhilai Nagar (2)  00:18-00:20-2m--2612.014298mSECRBhilai, Chhattisgarh
75DURGDurg Junction (6)  00:40-00:50-10m--2616.687299mSECRPh: 91-788-2322059, Chhattisgarh
76RJNRaj Nandgaon (3)  01:11-01:16-5m--2647.0115313mSECRRajnandgaon, Chhattisgarh
77MUAMusraX  01:28-01:30-2m--2670.057325mSECRRajnandgaon, Chhattisgarh
78JTRJatkanharX  01:37-01:39-2m--2676.736330mSECRRajnandgaon, Chhattisgarh
79DGGDongargarh (2)  01:50-02:00-10m--2683.266353mSECRDongargarh, Chhattisgarh
80PJBPaniajob (2)  02:07-02:08-1m--2690.953398mSECRRajnandgaon, Chhattisgarh
81BTLBortalao (2)X  02:18-02:19-1m--2699.758409mSECRRajnandgaon, Chhattisgarh
82DKSDarekasa (2)  02:27-02:28-1m--2707.453381mSECRRajnandgaon, Chhattisgarh
83SKS•Salekasa (2)•  02:41-02:43-2m--2718.980312mSECRRajnandgaon, Chhattisgarh
84AGNAmgaon (2)  02:54-02:56-2m--2733.673317mSECRGondia, Maharashtra
85GDMGudma (2)  03:05-03:06-1m--2744.530323mSECRGondia, Maharashtra
86GGondia Junction (7)  03:30-03:40-10m--2756.577316mSECRGondia 441601, Maharashtra
87GJGangajhari (2)X  03:51-03:52-1m--2770.672315mSECRBhandara, Maharashtra
88KWNKachewani (3)X  03:59-04:00-1m--2778.958303mSECRKachewani, Maharashtra
89TROTirora (3)X  04:07-04:09-2m--2785.775282mSECRDist Gondiya, Maharashtra
90MNUMundikota (2)  04:17-04:19-2m--2795.856269mSECRBhandara, Maharashtra
91TMRTumsar Road (3)  04:30-04:32-2m--2806.198267mSECRBhandara, Maharashtra
92BRDBhandara Road (2)X  04:43-04:45-2m--2824.060266mSECRState Highway 252, Maharashtra
93KHATKhat (2)X  04:55-04:56-1m--2834.077286mSECRNagpur, Maharashtra
94RRLRewral (2)X  05:03-05:04-1m--2843.068293mSECRNagpur Distt, Maharashtra
95TARTharsa (2)  05:09-05:11-2m--2848.663292mSECRNagpur, Maharashtra
96CHCRChacher (2)  05:17-05:18-1m--2854.953284mSECRNagpur, Maharashtra
97KNHNKanhan Junction (3)  05:32-05:34-2m--2867.217288mSECRKanhan, Maharashtra
98KPKamptee (3)X  05:51-05:53-2m--2872.025290mSECRMH 441001, Maharashtra
99KAVKalamna (2)  06:11-06:13-2m--2879.65296mSECRNagpur, Maharashtra
100ITRItwari (3)X  06:45----2882.5-306mSECRNagpur, Maharashtra
Scroll to Top
Scroll to Bottom